createdAt,value
2023-08-11T00:02:09.463Z,5.07
2023-08-11T00:04:36.209Z,4.78
2023-08-11T00:07:03.535Z,5.00
2023-08-11T00:09:30.566Z,5.53
2023-08-11T00:11:57.293Z,4.93
2023-08-11T00:14:24.006Z,6.03
2023-08-11T00:16:50.705Z,5.40
2023-08-11T00:19:17.623Z,5.43
2023-08-11T00:21:44.359Z,5.22
2023-08-11T00:24:12.317Z,5.18
2023-08-11T00:26:39.028Z,6.18
2023-08-11T00:29:05.925Z,5.00
2023-08-11T00:31:32.754Z,4.88
2023-08-11T00:33:59.529Z,5.15
2023-08-11T00:36:26.256Z,5.72
2023-08-11T00:38:52.956Z,5.38
2023-08-11T00:41:19.653Z,5.57
2023-08-11T00:43:46.933Z,5.88
2023-08-11T00:46:14.766Z,5.03
2023-08-11T00:48:43.021Z,4.72
2023-08-11T00:51:12.849Z,5.22
2023-08-11T00:53:39.780Z,5.65
2023-08-11T00:56:06.518Z,5.35
2023-08-11T00:58:33.748Z,5.28
2023-08-11T01:01:00.789Z,5.90
2023-08-11T01:03:27.901Z,5.53
2023-08-11T01:06:19.452Z,4.88
2023-08-11T01:09:04.708Z,5.20
2023-08-11T01:11:31.793Z,5.50
2023-08-11T01:14:07.927Z,5.65
2023-08-11T01:16:36.816Z,5.43
2023-08-11T01:19:07.095Z,5.45
2023-08-11T01:21:40.236Z,5.45
2023-08-11T01:24:07.510Z,5.18
2023-08-11T01:26:34.498Z,5.50
2023-08-11T01:29:01.200Z,5.47
2023-08-11T01:31:27.922Z,5.53
2023-08-11T01:33:54.625Z,5.68
2023-08-11T01:36:21.289Z,5.60
2023-08-11T01:38:48.010Z,4.55
2023-08-11T01:41:15.644Z,5.43
2023-08-11T01:43:43.065Z,4.97
2023-08-11T01:46:10.765Z,5.13
2023-08-11T01:48:39.368Z,4.95
2023-08-11T01:51:06.168Z,5.85
2023-08-11T01:53:32.886Z,4.70
2023-08-11T01:55:59.679Z,4.57
2023-08-11T01:58:27.261Z,5.18
2023-08-11T02:00:53.925Z,5.10
2023-08-11T02:03:20.763Z,5.22
2023-08-11T02:05:47.494Z,4.75
2023-08-11T02:08:18.746Z,5.80
2023-08-11T02:10:48.728Z,5.68
2023-08-11T02:13:15.463Z,4.97
2023-08-11T02:15:42.135Z,4.25
2023-08-11T02:18:08.899Z,5.18
2023-08-11T02:20:35.938Z,4.68
2023-08-11T02:23:02.717Z,5.22
2023-08-11T02:25:29.406Z,4.53
2023-08-11T02:28:49.839Z,5.72
2023-08-11T02:30:50.280Z,5.38
2023-08-11T02:33:19.432Z,4.93
2023-08-11T02:35:47.129Z,5.22
2023-08-11T02:38:14.786Z,5.70
2023-08-11T02:40:41.560Z,5.93
2023-08-11T02:43:08.305Z,5.35
2023-08-11T02:45:36.978Z,5.38
2023-08-11T02:48:03.947Z,5.72
2023-08-11T02:50:30.814Z,4.80
2023-08-11T02:52:57.553Z,4.75
2023-08-11T02:55:24.257Z,4.85
2023-08-11T02:57:51.118Z,4.30
2023-08-11T03:00:18.772Z,4.95
2023-08-11T03:02:49.432Z,4.82
2023-08-11T03:05:17.631Z,5.40
2023-08-11T03:07:44.821Z,4.55
2023-08-11T03:10:12.080Z,5.53
2023-08-11T03:12:39.348Z,5.13
2023-08-11T03:15:07.067Z,5.03
2023-08-11T03:17:34.654Z,5.85
2023-08-11T03:20:01.365Z,5.77
2023-08-11T03:22:28.028Z,5.90
2023-08-11T03:24:54.699Z,5.40
2023-08-11T03:27:21.375Z,5.72
2023-08-11T03:29:48.072Z,4.78
2023-08-11T03:32:15.644Z,5.30
2023-08-11T03:34:42.656Z,5.13
2023-08-11T03:37:09.774Z,5.20
2023-08-11T03:39:36.493Z,5.57
2023-08-11T03:42:03.326Z,4.93
2023-08-11T03:44:30.026Z,5.82
2023-08-11T03:46:56.824Z,5.93
2023-08-11T03:49:23.525Z,5.35
2023-08-11T03:51:50.258Z,5.25
2023-08-11T03:54:17.112Z,5.10
2023-08-11T03:56:44.833Z,6.18
2023-08-11T03:59:12.172Z,5.40
2023-08-11T04:01:39.855Z,6.10
2023-08-11T04:04:07.635Z,6.75
2023-08-11T04:06:34.457Z,5.70
2023-08-11T04:09:01.829Z,5.68
2023-08-11T04:11:29.208Z,6.00
2023-08-11T04:13:55.883Z,5.70
2023-08-11T04:16:22.967Z,6.28
2023-08-11T04:18:49.697Z,6.82
2023-08-11T04:21:16.506Z,5.72
2023-08-11T04:23:43.179Z,6.43
2023-08-11T04:26:11.505Z,5.95
2023-08-11T04:28:39.732Z,6.10
2023-08-11T04:31:08.265Z,5.97
2023-08-11T04:33:35.941Z,5.95
2023-08-11T04:36:03.812Z,5.90
2023-08-11T04:38:33.320Z,6.60
2023-08-11T04:41:00.270Z,6.40
2023-08-11T04:43:26.959Z,5.55
2023-08-11T04:45:55.243Z,7.03
2023-08-11T04:48:22.299Z,7.47
2023-08-11T04:50:53.071Z,6.50
2023-08-11T04:53:19.898Z,7.47
2023-08-11T04:55:46.835Z,7.13
2023-08-11T04:58:14.436Z,6.85
2023-08-11T05:00:41.228Z,7.20
2023-08-11T05:03:08.049Z,7.03
2023-08-11T05:05:35.284Z,7.28
2023-08-11T05:08:03.344Z,7.65
2023-08-11T05:10:30.328Z,6.97
2023-08-11T05:12:57.034Z,7.05
2023-08-11T05:15:23.971Z,6.97
2023-08-11T05:17:51.139Z,7.25
2023-08-11T05:20:18.245Z,7.07
2023-08-11T05:22:45.249Z,7.20
2023-08-11T05:25:12.049Z,6.82
2023-08-11T05:27:38.731Z,7.18
2023-08-11T05:30:08.720Z,7.38
2023-08-11T05:32:35.723Z,7.18
2023-08-11T05:35:02.500Z,8.57
2023-08-11T05:37:29.357Z,6.63
2023-08-11T05:39:56.370Z,7.13
2023-08-11T05:42:23.566Z,8.52
2023-08-11T05:44:50.266Z,8.05
2023-08-11T05:47:17.068Z,7.68
2023-08-11T05:49:43.795Z,7.25
2023-08-11T05:52:10.484Z,7.20
2023-08-11T05:54:37.152Z,7.50
2023-08-11T05:57:04.015Z,7.60
2023-08-11T05:59:30.712Z,6.95
2023-08-11T06:01:57.418Z,7.55
2023-08-11T06:04:24.108Z,7.35
2023-08-11T06:06:50.855Z,7.65
2023-08-11T06:09:17.510Z,7.07
2023-08-11T06:11:44.300Z,8.82
2023-08-11T06:14:10.978Z,8.63
2023-08-11T06:16:37.749Z,7.72
2023-08-11T06:19:04.606Z,8.25
2023-08-11T06:21:31.455Z,8.93
2023-08-11T06:23:58.212Z,7.63
2023-08-11T06:26:24.881Z,9.20
2023-08-11T06:28:51.552Z,8.20
2023-08-11T06:31:22.699Z,8.75
2023-08-11T06:33:49.617Z,8.00
2023-08-11T06:36:16.319Z,9.65
2023-08-11T06:38:43.837Z,8.55
2023-08-11T06:41:10.688Z,8.40
2023-08-11T06:43:37.612Z,8.82
2023-08-11T06:46:04.517Z,8.85
2023-08-11T06:48:31.268Z,8.80
2023-08-11T06:50:58.391Z,8.82
2023-08-11T06:53:25.573Z,9.05
2023-08-11T06:55:53.090Z,8.57
2023-08-11T06:58:19.817Z,8.13
2023-08-11T07:00:46.605Z,8.05
2023-08-11T07:03:13.444Z,8.00
2023-08-11T07:05:40.269Z,7.75
2023-08-11T07:08:07.036Z,8.30
2023-08-11T07:10:34.216Z,8.38
2023-08-11T07:13:00.994Z,7.40
2023-08-11T07:15:27.738Z,7.45
2023-08-11T07:17:55.130Z,7.75
2023-08-11T07:20:22.042Z,7.60
2023-08-11T07:22:48.758Z,8.98
2023-08-11T07:25:15.474Z,8.75
2023-08-11T07:27:42.160Z,8.20
2023-08-11T07:30:09.599Z,7.65
2023-08-11T07:32:36.359Z,8.20
2023-08-11T07:35:03.058Z,7.05
2023-08-11T07:37:29.803Z,7.47
2023-08-11T07:39:56.506Z,6.57
2023-08-11T07:42:23.467Z,6.90
2023-08-11T07:44:50.205Z,6.78
2023-08-11T07:47:16.920Z,6.22
2023-08-11T07:49:43.612Z,6.90
2023-08-11T07:52:10.296Z,6.57
2023-08-11T07:54:37.109Z,6.28
2023-08-11T07:57:04.246Z,5.78
2023-08-11T07:59:30.991Z,5.93
2023-08-11T08:01:57.734Z,5.68
2023-08-11T08:04:24.961Z,5.22
2023-08-11T08:06:52.141Z,4.95
2023-08-11T08:09:19.577Z,4.93
2023-08-11T08:11:48.628Z,5.10
2023-08-11T08:14:15.826Z,4.65
2023-08-11T08:16:45.587Z,4.70
2023-08-11T08:19:13.381Z,4.88
2023-08-11T08:21:40.919Z,4.30
2023-08-11T08:24:09.150Z,4.17
2023-08-11T08:29:04.636Z,3.92
2023-08-11T08:31:31.854Z,4.13
2023-08-11T08:33:59.244Z,4.30
2023-08-11T08:36:26.425Z,3.90
2023-08-11T08:38:53.827Z,3.85
2023-08-11T08:41:24.471Z,4.65
2023-08-11T08:43:52.450Z,3.67
2023-08-11T08:46:22.446Z,4.03
2023-08-11T08:49:03.469Z,3.70
2023-08-11T08:51:31.274Z,4.20
2023-08-11T08:53:58.688Z,3.92
2023-08-11T08:56:26.140Z,3.95
2023-08-11T08:58:52.937Z,3.83
2023-08-11T09:01:20.293Z,4.10
2023-08-11T09:03:47.687Z,3.80
2023-08-11T09:06:16.343Z,3.37
2023-08-11T09:08:43.240Z,3.85
2023-08-11T09:11:10.398Z,4.07
2023-08-11T09:13:39.244Z,3.30
2023-08-11T09:16:06.643Z,3.05
2023-08-11T09:18:34.182Z,3.33
2023-08-11T09:21:03.464Z,3.70
2023-08-11T09:23:30.820Z,4.00
2023-08-11T09:25:58.140Z,3.63
2023-08-11T09:28:25.285Z,4.63
2023-08-11T09:30:52.415Z,4.30
2023-08-11T09:33:19.652Z,3.70
2023-08-11T09:35:46.880Z,3.60
2023-08-11T09:38:14.290Z,3.13
2023-08-11T09:40:42.630Z,3.70
2023-08-11T09:45:36.995Z,4.30
2023-08-11T09:48:04.297Z,3.88
2023-08-11T09:50:34.369Z,3.15
2023-08-11T09:53:01.889Z,3.75
2023-08-11T09:55:30.631Z,2.93
2023-08-11T09:57:58.310Z,3.53
2023-08-11T10:00:26.458Z,3.13
2023-08-11T10:03:01.338Z,2.83
2023-08-11T10:05:31.006Z,2.40
2023-08-11T10:07:59.541Z,2.40
2023-08-11T10:10:27.816Z,2.45
2023-08-11T10:13:12.972Z,2.47
2023-08-11T10:15:40.221Z,2.92
2023-08-11T10:18:07.963Z,2.42
2023-08-11T10:20:35.151Z,2.58
2023-08-11T10:23:03.218Z,2.30
2023-08-11T10:25:30.971Z,2.15
2023-08-11T10:27:58.828Z,2.40
2023-08-11T10:30:26.678Z,2.00
2023-08-11T10:33:05.445Z,2.80
2023-08-11T10:35:49.195Z,2.78
2023-08-11T10:38:34.842Z,2.60
2023-08-11T10:41:02.787Z,2.33
2023-08-11T10:43:32.374Z,2.20
2023-08-11T10:46:15.936Z,2.65
2023-08-11T10:48:44.243Z,2.70
2023-08-11T10:53:41.183Z,2.42
2023-08-11T10:56:08.300Z,2.70
2023-08-11T10:58:35.437Z,2.50
2023-08-11T11:01:02.713Z,2.50
2023-08-11T11:03:29.491Z,2.78
2023-08-11T11:05:56.179Z,2.10
2023-08-11T11:08:22.863Z,2.40
2023-08-11T11:10:50.942Z,2.40
2023-08-11T11:13:18.300Z,2.47
2023-08-11T11:15:45.335Z,2.53
2023-08-11T11:18:12.458Z,2.30
2023-08-11T11:20:39.305Z,2.05
2023-08-11T11:23:06.668Z,2.58
2023-08-11T11:25:33.517Z,2.20
2023-08-11T11:28:00.236Z,2.60
2023-08-11T11:30:27.017Z,2.20
2023-08-11T11:32:53.852Z,2.20
2023-08-11T11:35:20.682Z,2.03
2023-08-11T11:37:47.664Z,2.92
2023-08-11T11:40:14.965Z,2.13
2023-08-11T11:42:42.472Z,2.05
2023-08-11T11:45:10.404Z,2.55
2023-08-11T11:47:38.026Z,2.38
2023-08-11T11:50:08.880Z,2.45
2023-08-11T11:52:37.880Z,2.28
2023-08-11T11:55:07.373Z,2.42
2023-08-11T11:57:35.126Z,2.42
2023-08-11T12:00:04.374Z,2.55
2023-08-11T12:02:33.608Z,2.40
2023-08-11T12:05:00.919Z,2.67
2023-08-11T12:07:34.786Z,2.25
2023-08-11T12:10:01.992Z,2.80
2023-08-11T12:12:29.422Z,2.70
2023-08-11T12:15:04.276Z,3.30
2023-08-11T12:17:32.542Z,2.70
2023-08-11T12:20:00.199Z,2.90
2023-08-11T12:22:27.305Z,3.20
2023-08-11T12:24:54.388Z,2.70
2023-08-11T12:27:21.668Z,1.98
2023-08-11T12:29:48.982Z,2.60
2023-08-11T12:32:16.089Z,2.23
2023-08-11T12:34:43.227Z,3.00
2023-08-11T12:37:13.056Z,2.88
2023-08-11T12:39:40.597Z,3.00
2023-08-11T12:42:08.711Z,2.95
2023-08-11T12:44:36.253Z,2.90
2023-08-11T12:47:03.358Z,3.03
2023-08-11T12:49:33.293Z,2.58
2023-08-11T12:52:00.562Z,3.45
2023-08-11T12:54:27.293Z,3.50
2023-08-11T12:56:54.070Z,3.08
2023-08-11T12:59:21.240Z,4.10
2023-08-11T13:01:48.465Z,3.63
2023-08-11T13:04:15.764Z,3.25
2023-08-11T13:06:42.874Z,2.90
2023-08-11T13:09:10.163Z,2.38
2023-08-11T13:11:37.280Z,2.47
2023-08-11T13:14:04.495Z,2.63
2023-08-11T13:16:31.636Z,1.83
2023-08-11T13:18:58.839Z,2.40
2023-08-11T13:21:25.998Z,1.98
2023-08-11T13:23:53.152Z,2.03
2023-08-11T13:26:20.248Z,1.98
2023-08-11T13:28:47.379Z,2.17
2023-08-11T13:31:14.525Z,2.08
2023-08-11T13:33:41.693Z,1.95
2023-08-11T13:36:09.789Z,1.90
2023-08-11T13:41:04.075Z,1.90
2023-08-11T13:43:31.419Z,2.50
2023-08-11T13:45:58.699Z,2.22
2023-08-11T13:48:27.647Z,2.28
2023-08-11T13:50:56.473Z,2.10
2023-08-11T13:53:23.689Z,1.92
2023-08-11T13:55:50.857Z,2.73
2023-08-11T13:58:17.960Z,2.90
2023-08-11T14:00:45.323Z,2.42
2023-08-11T14:03:12.499Z,2.97
2023-08-11T14:05:39.648Z,3.03
2023-08-11T14:08:06.871Z,2.55
2023-08-11T14:10:34.032Z,2.70
2023-08-11T14:13:04.877Z,2.80
2023-08-11T14:15:32.116Z,3.10
2023-08-11T14:17:59.255Z,3.87
2023-08-11T14:20:26.560Z,2.95
2023-08-11T14:22:53.670Z,3.45
2023-08-11T14:25:20.969Z,2.97
2023-08-11T14:27:48.189Z,3.72
2023-08-11T14:30:15.552Z,3.10
2023-08-11T14:32:42.817Z,3.33
2023-08-11T14:35:10.135Z,2.63
2023-08-11T14:37:37.387Z,3.30
2023-08-11T14:40:04.969Z,2.80
2023-08-11T14:42:32.060Z,2.13
2023-08-11T14:44:59.987Z,2.63
2023-08-11T14:47:27.149Z,2.45
2023-08-11T14:49:54.334Z,2.93
2023-08-11T14:52:21.469Z,2.10
2023-08-11T14:54:48.626Z,2.13
2023-08-11T14:57:16.560Z,2.33
2023-08-11T14:59:43.804Z,1.98
2023-08-11T15:02:11.630Z,2.67
2023-08-11T15:04:39.048Z,2.10
2023-08-11T15:07:06.527Z,2.00
2023-08-11T15:09:35.101Z,2.40
2023-08-11T15:12:02.268Z,2.05
2023-08-11T15:14:29.469Z,2.13
2023-08-11T15:16:56.636Z,2.53
2023-08-11T15:19:23.804Z,2.97
2023-08-11T15:21:50.882Z,2.10
2023-08-11T15:24:18.127Z,2.17
2023-08-11T15:26:45.271Z,2.37
2023-08-11T15:29:12.402Z,2.00
2023-08-11T15:31:39.518Z,2.45
2023-08-11T15:34:06.699Z,2.33
2023-08-11T15:36:33.887Z,2.03
2023-08-11T15:39:01.637Z,1.85
2023-08-11T15:41:28.762Z,2.30
2023-08-11T15:43:55.896Z,2.40
2023-08-11T15:46:23.239Z,3.83
2023-08-11T15:48:51.119Z,2.10
2023-08-11T15:51:19.847Z,2.13
2023-08-11T15:53:47.142Z,2.15
2023-08-11T15:56:14.276Z,2.95
2023-08-11T15:58:41.422Z,2.80
2023-08-11T16:01:09.268Z,2.10
2023-08-11T16:03:36.619Z,2.25
2023-08-11T16:06:04.741Z,1.85
2023-08-11T16:10:59.030Z,2.07
2023-08-11T16:13:26.340Z,1.90
2023-08-11T16:15:53.744Z,2.38
2023-08-11T16:18:20.959Z,1.83
2023-08-11T16:20:48.147Z,2.15
2023-08-11T16:23:15.355Z,1.73
2023-08-11T16:25:42.455Z,1.77
2023-08-11T16:28:11.348Z,1.35
2023-08-11T16:30:38.592Z,1.67
2023-08-11T16:33:05.968Z,1.70
2023-08-11T16:35:33.221Z,1.35
2023-08-11T16:38:01.493Z,1.55
2023-08-11T16:40:30.858Z,1.60
2023-08-11T16:42:57.977Z,1.77
2023-08-11T16:45:25.279Z,1.98
2023-08-11T16:47:52.478Z,2.43
2023-08-11T16:50:19.618Z,2.30
2023-08-11T16:52:46.849Z,3.33
2023-08-11T16:55:13.982Z,3.05
2023-08-11T16:57:41.125Z,2.65
2023-08-11T17:00:08.605Z,3.33
2023-08-11T17:02:35.767Z,2.78
2023-08-11T17:05:02.937Z,2.85
2023-08-11T17:07:30.206Z,2.35
2023-08-11T17:09:57.429Z,3.17
2023-08-11T17:12:24.622Z,2.92
2023-08-11T17:14:53.544Z,2.15
2023-08-11T17:17:20.720Z,2.63
2023-08-11T17:19:48.398Z,2.13
2023-08-11T17:22:15.545Z,2.00
2023-08-11T17:24:42.686Z,2.55
2023-08-11T17:27:09.837Z,1.83
2023-08-11T17:29:37.082Z,2.20
2023-08-11T17:32:04.514Z,2.60
2023-08-11T17:34:33.997Z,1.65
2023-08-11T17:37:03.350Z,1.58
2023-08-11T17:39:33.797Z,1.60
2023-08-11T17:42:04.777Z,1.33
2023-08-11T17:44:31.964Z,1.90
2023-08-11T17:46:59.129Z,1.63
2023-08-11T17:49:26.299Z,1.55
2023-08-11T17:51:53.402Z,1.50
2023-08-11T17:54:21.058Z,1.33
2023-08-11T17:56:48.174Z,1.80
2023-08-11T17:59:15.348Z,1.48
2023-08-11T18:01:42.496Z,1.60
2023-08-11T18:04:09.714Z,1.60
2023-08-11T18:06:37.106Z,1.52
2023-08-11T18:09:04.984Z,1.30
2023-08-11T18:11:32.167Z,1.30
2023-08-11T18:13:59.360Z,1.30
2023-08-11T18:16:28.051Z,1.25
2023-08-11T18:18:55.877Z,1.15
2023-08-11T18:21:23.134Z,1.02
2023-08-11T18:23:50.292Z,1.10
2023-08-11T18:26:17.885Z,1.20
2023-08-11T18:28:45.093Z,1.45
2023-08-11T18:31:12.342Z,1.17
2023-08-11T18:33:39.692Z,1.27
2023-08-11T18:36:07.593Z,1.73
2023-08-11T18:38:34.781Z,1.25
2023-08-11T18:41:01.968Z,1.30
2023-08-11T18:43:28.711Z,1.15
2023-08-11T18:45:55.424Z,1.13
2023-08-11T18:48:22.129Z,1.45
2023-08-11T18:50:48.792Z,1.30
2023-08-11T18:53:15.487Z,1.30
2023-08-11T18:55:42.166Z,1.13
2023-08-11T18:58:08.864Z,2.05
2023-08-11T19:00:35.623Z,1.52
2023-08-11T19:03:02.490Z,1.85
2023-08-11T19:05:31.721Z,1.27
2023-08-11T19:07:58.407Z,1.30
2023-08-11T19:10:25.133Z,1.40
2023-08-11T19:12:52.150Z,1.30
2023-08-11T19:15:19.996Z,1.17
2023-08-11T19:17:46.770Z,1.98
2023-08-11T19:20:13.668Z,0.98
2023-08-11T19:22:40.684Z,1.73
2023-08-11T19:25:08.743Z,1.20
2023-08-11T19:27:35.649Z,1.27
2023-08-11T19:30:02.417Z,1.45
2023-08-11T19:32:29.217Z,1.25
2023-08-11T19:34:56.965Z,1.30
2023-08-11T19:37:23.716Z,1.60
2023-08-11T19:39:50.658Z,1.88
2023-08-11T19:42:17.336Z,1.13
2023-08-11T19:44:44.530Z,0.90
2023-08-11T19:47:11.245Z,0.95
2023-08-11T19:49:37.988Z,1.13
2023-08-11T19:52:04.992Z,0.75
2023-08-11T19:54:31.781Z,0.95
2023-08-11T19:56:58.523Z,0.98
2023-08-11T19:59:25.283Z,1.33
2023-08-11T20:01:52.042Z,1.10
2023-08-11T20:04:20.030Z,0.90
2023-08-11T20:06:46.939Z,1.10
2023-08-11T20:09:15.401Z,0.80
2023-08-11T20:11:42.121Z,0.73
2023-08-11T20:14:08.857Z,0.80
2023-08-11T20:16:35.551Z,0.90
2023-08-11T20:19:02.255Z,1.05
2023-08-11T20:21:29.016Z,0.90
2023-08-11T20:23:55.739Z,0.95
2023-08-11T20:26:22.454Z,0.85
2023-08-11T20:28:49.257Z,1.15
2023-08-11T20:31:15.946Z,0.80
2023-08-11T20:33:42.667Z,0.90
2023-08-11T20:36:09.390Z,0.80
2023-08-11T20:38:39.084Z,1.08
2023-08-11T20:41:06.336Z,0.90
2023-08-11T20:43:33.262Z,1.45
2023-08-11T20:46:00.991Z,1.25
2023-08-11T20:48:27.867Z,0.90
2023-08-11T20:51:04.037Z,0.95
2023-08-11T20:53:33.633Z,1.35
2023-08-11T20:56:01.123Z,0.80
2023-08-11T20:58:28.644Z,0.85
2023-08-11T21:00:55.730Z,1.20
2023-08-11T21:03:22.603Z,1.20
2023-08-11T21:05:49.443Z,1.00
2023-08-11T21:08:17.355Z,0.93
2023-08-11T21:10:45.532Z,1.30
2023-08-11T21:15:40.249Z,0.90
2023-08-11T21:18:08.131Z,1.00
2023-08-11T21:20:36.580Z,1.27
2023-08-11T21:23:04.417Z,1.10
2023-08-11T21:25:31.984Z,1.20
2023-08-11T21:27:58.877Z,1.30
2023-08-11T21:30:25.665Z,1.20
2023-08-11T21:32:52.806Z,1.40
2023-08-11T21:35:19.932Z,1.35
2023-08-11T21:37:46.633Z,1.55
2023-08-11T21:40:13.324Z,1.60
2023-08-11T21:42:40.043Z,1.27
2023-08-11T21:45:07.220Z,1.70
2023-08-11T21:47:35.685Z,1.58
2023-08-11T21:50:02.965Z,2.10
2023-08-11T21:52:29.677Z,1.70
2023-08-11T21:54:56.345Z,1.80
2023-08-11T21:57:23.332Z,2.00
2023-08-11T21:59:50.481Z,1.70
2023-08-11T22:02:17.578Z,1.88
2023-08-11T22:04:46.330Z,1.90
2023-08-11T22:07:13.927Z,1.58
2023-08-11T22:09:40.932Z,2.35
2023-08-11T22:12:07.763Z,1.90
2023-08-11T22:14:34.941Z,2.10
2023-08-11T22:17:01.680Z,2.35
2023-08-11T22:19:33.314Z,2.15
2023-08-11T22:22:00.017Z,1.80
2023-08-11T22:24:39.955Z,2.63
2023-08-11T22:27:08.147Z,2.25
2023-08-11T22:29:34.918Z,2.40
2023-08-11T22:32:02.079Z,2.45
2023-08-11T22:34:28.842Z,2.78
2023-08-11T22:36:56.106Z,2.60
2023-08-11T22:39:23.128Z,2.30
2023-08-11T22:41:49.832Z,3.00
2023-08-11T22:44:16.512Z,3.10
2023-08-11T22:46:43.330Z,2.72
2023-08-11T22:49:10.112Z,2.97
2023-08-11T22:51:36.827Z,3.13
2023-08-11T22:54:03.866Z,2.90
2023-08-11T22:56:33.460Z,2.97
2023-08-11T22:59:00.226Z,2.92
2023-08-11T23:01:27.021Z,3.20
2023-08-11T23:03:53.767Z,3.00
2023-08-11T23:06:20.669Z,2.47
2023-08-11T23:08:47.509Z,3.50
2023-08-11T23:11:14.246Z,2.83
2023-08-11T23:13:40.926Z,3.22
2023-08-11T23:16:07.741Z,3.35
2023-08-11T23:18:34.507Z,3.20
2023-08-11T23:21:01.225Z,3.10
2023-08-11T23:23:27.937Z,2.60
2023-08-11T23:25:55.809Z,2.40
2023-08-11T23:28:22.648Z,3.05
2023-08-11T23:30:49.365Z,2.70
2023-08-11T23:33:16.349Z,2.70
2023-08-11T23:35:43.196Z,3.30
2023-08-11T23:38:11.729Z,2.95
2023-08-11T23:40:38.559Z,2.65
2023-08-11T23:43:05.633Z,3.85
2023-08-11T23:45:32.721Z,3.20
2023-08-11T23:47:59.686Z,3.03
2023-08-11T23:50:27.650Z,3.50
2023-08-11T23:52:54.407Z,3.75
2023-08-11T23:55:21.551Z,3.58
2023-08-11T23:57:48.305Z,2.88
